Aroma Park, IL

1:21 PM CDT on September 02, 2015 (GMT -0500)
rural Saint Anne | | Change Station
CLOSE
Current Station
Personal Weather Station
Location: Saint Anne, IL
Elevation: 689 ft
Nearby Weather Stations

Elev 689 ft 41.06 °N, 87.75 °W | Updated 13 minutes ago

Scattered Clouds
Scattered Clouds
92.7 °F
Feels Like 102 °F
N
4.2
Wind Variable Wind from SW

Today
High -- | Low -- °F
--% Chance of Precip.
Yesterday
High -- | Low -- °F
Precip. -- in
6:18 AM 7:22 PM
Waning Gibbous, 78% visible
Pressure 30.04 in
Visibility 10.0 miles
Clouds Scattered Clouds 3900 ft
Scattered Clouds 4500 ft
Scattered Clouds 5000 ft
Heat Index 102 °F
Dew Point 73 °F
Humidity 53%
Rainfall 0.00 in
Snow Depth Not available.
UV 7 out of 12
Pollen 11.00 out of 12
Air Quality Not available.
Flu Activity Not available.
METAR KIKK 021755Z AUTO 20008KT 10SM SCT039 SCT045 SCT050 32/23 A3004 RMK AO2 T03200225 10320 20205
Pressure 30.04 in
Visibility 10.0 miles
Clouds Scattered Clouds 3900 ft
Scattered Clouds 4500 ft
Scattered Clouds 5000 ft
Heat Index 102 °F
Dew Point 73 °F
Humidity 53%
Rainfall 0.00 in
Snow Depth Not available.
UV 7 out of 12
Pollen 11.00 out of 12
Air Quality Not available.
Flu Activity Not available.
METAR KIKK 021755Z AUTO 20008KT 10SM SCT039 SCT045 SCT050 32/23 A3004 RMK AO2 T03200225 10320 20205

10-Day Weather Forecast

×

Almanac

Astronomy

Sep. 02, 2015 Rise Set
Actual Time
Civil Twilight
Nautical Twilight
Astronomical Twilight
Moon
Length of Visible Light
Length of Day
Tomorrow will be .
, % of the Moon is Illuminated

Today's Extremes

State Highs State Lows

Community

WunderPhotos

Upload Photos

1,851,791 photos uploaded!

WunderBlogs® & News

Nearby

Air Quality

  Air Quality AQ Index Pollutant
Not available.

Snow Depth

Station Depth Elevation

Earthquake Activity

City Distance Mag. Time & Date
Minimum magnitude displayed is 2.5.

Coastal Water Temperatures

Place Temperature

Stations

Nearby Weather Stations

Station Location Temp. Windchill Dew Point Humidity Wind Precip. Elev Updated Type